Spearfish, SD

1:17 PM MST on January 18, 2018 (GMT -0700)
Black Hills-Ice

Weather History for KSPF - January, 2014

Change the Weather History Date:

Wednesday, January 1, 2014

  Actual Average (KEFC) Record (KEFC)
Temperature  
Mean Temperature 22 °F -  
Max Temperature 28 °F 33 °F 54 °F (1954)
Min Temperature 17 °F 7 °F -23 °F (1952)
Degree Days  
Heating Degree Days 42    
Moisture  
Dew Point 20 °F    
Average Humidity 86    
Maximum Humidity 100    
Minimum Humidity 69    
Precipitation  
Precipitation 1.16 in - - ()
Sea Level Pressure  
Sea Level Pressure 30.14 in    
Wind  
Wind Speed 10 mph (WNW)    
Max Wind Speed 22 mph    
Max Gust Speed 30 mph    
Visibility 7 miles    
Events Fog , Rain , Snow    
Averages and records for this station are not official NWS values.
T = Trace of Precipitation, MM = Missing Value Source: NWS Daily Summary

Daily Weather History Graph

Daily Weather History Graph

Search for Another Location

Airport or City:

Trip Planner

Search our weather history database for the weather conditions in past years. The results will help you decide how hot, cold, wet, or windy it might be!

Date:

Astronomy

Jan. 01, 2014 Rise Set
Actual Time 8:31 AM CST 5:26 PM CST
Civil Twilight 7:58 AM CST 5:59 PM CST
Nautical Twilight 7:21 AM CST 6:36 PM CST
Astronomical Twilight 6:46 AM CST 7:11 PM CST
Moon 8:21 AM CST (1/1) 6:17 PM CST (1/1)
Length of Visible Light 10h 01m
Length of Day
8h 54m
New Moon, 0% of the Moon is Illuminated
Jan 1
New Moon
Jan 7
First Quarter
Jan 15
Full
Jan 23
Last Quarter
Jan 30
New

Hourly Weather History & Observations

Time (CST) Temp. Windchill Dew Point Humidity Pressure Visibility Wind Dir Wind Speed Gust Speed Precip Events Conditions
12:15 AM 24.8 °F 15.3 °F 24.8 °F 100% 29.98 in 4.0 mi WNW 9.2 mph - N/A   Overcast
12:35 AM 23.0 °F 13.1 °F 23.0 °F 100% 29.98 in 5.0 mi WNW 9.2 mph - N/A   Overcast
12:55 AM 23.0 °F - 23.0 °F 100% 29.98 in 8.0 mi Calm Calm - N/A   Overcast
1:15 AM 23.0 °F 17.0 °F 23.0 °F 100% 29.98 in 9.0 mi NNW 4.6 mph - N/A   Overcast
1:35 AM 21.2 °F 10.1 °F 19.4 °F 93% 29.99 in 6.0 mi NW 10.4 mph - N/A   Overcast
1:55 AM 19.4 °F 9.5 °F 17.6 °F 93% 29.99 in 0.8 mi WNW 8.1 mph - N/A   Overcast
2:15 AM 19.4 °F 14.3 °F 17.6 °F 93% 29.99 in 1.0 mi West 3.5 mph - N/A   Overcast
2:35 AM 19.4 °F 12.8 °F 17.6 °F 93% 29.99 in 2.0 mi WNW 4.6 mph - N/A   Overcast
2:55 AM 17.6 °F 12.3 °F 17.6 °F 100% 29.99 in 0.2 mi West 3.5 mph - N/A Fog Light Freezing Fog
3:15 AM 17.6 °F 12.3 °F 17.6 °F 100% 30.00 in 3.0 mi East 3.5 mph - N/A   Overcast
3:35 AM 19.4 °F - 17.6 °F 93% 30.02 in 8.0 mi Calm Calm - N/A   Overcast
3:55 AM 17.6 °F 7.3 °F 17.6 °F 100% 30.04 in 0.5 mi West 8.1 mph - N/A Fog Light Freezing Fog
4:15 AM 17.6 °F 6.4 °F 15.8 °F 93% 30.04 in 0.2 mi West 9.2 mph - N/A Fog Light Freezing Fog
4:35 AM 17.6 °F 9.3 °F 15.8 °F 93% 30.04 in 0.2 mi West 5.8 mph - N/A Fog Light Freezing Fog
4:55 AM 17.6 °F 8.2 °F 15.8 °F 93% 30.04 in 0.5 mi West 6.9 mph - N/A Fog Light Freezing Fog
5:15 AM 17.6 °F 9.3 °F 15.8 °F 93% 30.04 in 9.0 mi West 5.8 mph - N/A   Scattered Clouds
5:35 AM 23.0 °F 13.1 °F 21.2 °F 93% 30.05 in 10.0 mi West 9.2 mph - N/A   Scattered Clouds
5:55 AM 24.8 °F 14.0 °F 23.0 °F 93% 30.06 in 10.0 mi WNW 11.5 mph 17.3 mph N/A   Mostly Cloudy
6:15 AM 23.0 °F 12.4 °F 23.0 °F 100% 30.08 in 10.0 mi NW 10.4 mph - N/A   Overcast
6:35 AM 23.0 °F 12.4 °F 19.4 °F 86% 30.09 in 9.0 mi WNW 10.4 mph - N/A   Overcast
6:55 AM 23.0 °F 13.9 °F 21.2 °F 93% 30.09 in 3.0 mi WNW 8.1 mph - 0.05 in Snow Light Snow
7:15 AM 23.0 °F 11.1 °F 23.0 °F 100% 30.10 in 2.5 mi WNW 12.7 mph 16.1 mph 0.10 in Snow Light Snow
7:35 AM 23.0 °F 14.7 °F 21.2 °F 93% 30.11 in 1.8 mi NW 6.9 mph - 0.26 in Snow Light Snow
7:55 AM 23.0 °F - 21.2 °F 93% 30.12 in 1.5 mi Calm Calm - 0.49 in Snow Light Snow
8:15 AM 23.0 °F 17.0 °F 21.2 °F 93% 30.13 in 1.8 mi NW 4.6 mph - 0.14 in Snow Light Snow
8:35 AM 23.0 °F 17.0 °F 21.2 °F 93% 30.14 in 1.2 mi WNW 4.6 mph - 0.29 in Snow Light Snow
8:55 AM 23.0 °F 14.7 °F 21.2 °F 93% 30.14 in 1.2 mi West 6.9 mph - 0.37 in Snow Light Snow
9:15 AM 23.0 °F 13.1 °F 23.0 °F 100% 30.15 in 1.0 mi WNW 9.2 mph - 0.06 in Snow Light Snow
9:35 AM 23.0 °F 11.1 °F 23.0 °F 100% 30.17 in 8.0 mi WNW 12.7 mph - 0.07 in Snow Light Snow
9:55 AM 24.8 °F 15.3 °F 23.0 °F 93% 30.18 in 1.2 mi West 9.2 mph - 0.11 in Snow Light Snow
10:15 AM 24.8 °F 14.0 °F 23.0 °F 93% 30.19 in 1.2 mi WNW 11.5 mph - 0.03 in   Mostly Cloudy
10:35 AM 24.8 °F 14.0 °F 23.0 °F 93% 30.20 in 0.8 mi NW 11.5 mph - 0.11 in Snow Light Snow
10:55 AM 24.8 °F 14.6 °F 23.0 °F 93% 30.21 in 10.0 mi WNW 10.4 mph - 0.14 in Snow Light Snow
11:15 AM 24.8 °F 12.9 °F 23.0 °F 93% 30.21 in 10.0 mi WNW 13.8 mph - N/A Rain Light Freezing Rain
11:35 AM 24.8 °F 12.9 °F 23.0 °F 93% 30.21 in 10.0 mi WNW 13.8 mph 19.6 mph N/A   Overcast
11:55 AM 24.8 °F 13.4 °F 23.0 °F 93% 30.21 in 10.0 mi WNW 12.7 mph 19.6 mph N/A   Overcast
12:15 PM 24.8 °F 11.1 °F 23.0 °F 93% 30.20 in 10.0 mi WNW 18.4 mph 23.0 mph N/A   Overcast
12:35 PM 24.8 °F 10.7 °F 23.0 °F 93% 30.20 in 10.0 mi WNW 19.6 mph 26.5 mph N/A   Overcast
12:55 PM 24.8 °F 10.3 °F 21.2 °F 86% 30.21 in 10.0 mi WNW 20.7 mph 29.9 mph N/A   Overcast
1:15 PM 24.8 °F 10.7 °F 21.2 °F 86% 30.21 in 10.0 mi WNW 19.6 mph 25.3 mph N/A   Overcast
1:35 PM 24.8 °F 11.1 °F 19.4 °F 80% 30.20 in 10.0 mi NW 18.4 mph 24.2 mph N/A   Overcast
1:55 PM 24.8 °F 10.3 °F 19.4 °F 80% 30.21 in 10.0 mi WNW 20.7 mph - N/A   Overcast
2:15 PM 23.0 °F 8.3 °F 19.4 °F 86% 30.20 in 10.0 mi NW 19.6 mph 26.5 mph N/A   Overcast
2:35 PM 24.8 °F 12.4 °F 19.4 °F 80% 30.20 in 10.0 mi NW 15.0 mph 21.9 mph N/A   Overcast
2:55 PM 24.8 °F 10.7 °F 19.4 °F 80% 30.21 in 10.0 mi NW 19.6 mph 23.0 mph N/A   Overcast
3:15 PM 24.8 °F 10.7 °F 19.4 °F 80% 30.21 in 10.0 mi NW 19.6 mph 28.8 mph N/A   Overcast
3:35 PM 24.8 °F 10.0 °F 19.4 °F 80% 30.22 in 10.0 mi WNW 21.9 mph 28.8 mph N/A   Overcast
3:55 PM 24.8 °F 12.4 °F 19.4 °F 80% 30.22 in 10.0 mi WNW 15.0 mph 25.3 mph N/A   Overcast
4:15 PM 24.8 °F 12.4 °F 19.4 °F 80% 30.22 in 10.0 mi WNW 15.0 mph 23.0 mph N/A   Overcast
4:35 PM 24.8 °F 10.3 °F 19.4 °F 80% 30.22 in 10.0 mi WNW 20.7 mph 27.6 mph N/A   Overcast
4:55 PM 24.8 °F 11.1 °F 19.4 °F 80% 30.22 in 10.0 mi WNW 18.4 mph 26.5 mph N/A   Overcast
5:15 PM 24.8 °F 11.1 °F 19.4 °F 80% 30.22 in 10.0 mi WNW 18.4 mph - N/A   Overcast
5:35 PM 24.8 °F 11.1 °F 19.4 °F 80% 30.22 in 10.0 mi WNW 18.4 mph 25.3 mph N/A   Overcast
5:55 PM 24.8 °F 11.9 °F 19.4 °F 80% 30.23 in 10.0 mi WNW 16.1 mph 23.0 mph N/A   Overcast
6:15 PM 24.8 °F 12.9 °F 19.4 °F 80% 30.23 in 10.0 mi WNW 13.8 mph 18.4 mph N/A   Overcast
6:35 PM 24.8 °F 13.4 °F 19.4 °F 80% 30.23 in 10.0 mi WNW 12.7 mph 19.6 mph N/A   Overcast
6:55 PM 26.6 °F 16.8 °F 19.4 °F 74% 30.22 in 10.0 mi WNW 10.4 mph - N/A   Overcast
7:15 PM 26.6 °F 14.3 °F 19.4 °F 74% 30.23 in 10.0 mi WNW 16.1 mph 20.7 mph N/A   Overcast
7:35 PM 26.6 °F 15.7 °F 19.4 °F 74% 30.23 in 10.0 mi WNW 12.7 mph - N/A   Overcast
7:55 PM 26.6 °F - 19.4 °F 74% 30.22 in 10.0 mi North - - N/A   Overcast
8:15 PM 26.6 °F 17.5 °F 19.4 °F 74% 30.21 in 10.0 mi WNW 9.2 mph - N/A   Overcast
8:35 PM 26.6 °F 18.2 °F 19.4 °F 74% 30.21 in 10.0 mi West 8.1 mph - N/A   Overcast
8:55 PM 26.6 °F 17.5 °F 19.4 °F 74% 30.20 in 10.0 mi West 9.2 mph - N/A   Overcast
9:15 PM 26.6 °F 16.8 °F 19.4 °F 74% 30.19 in 10.0 mi West 10.4 mph - N/A   Overcast
9:35 PM 26.6 °F 17.5 °F 19.4 °F 74% 30.18 in 10.0 mi WNW 9.2 mph - N/A   Overcast
9:55 PM 26.6 °F 18.2 °F 19.4 °F 74% 30.18 in 10.0 mi WNW 8.1 mph - N/A   Overcast
10:15 PM 28.4 °F 20.4 °F 19.4 °F 69% 30.17 in 10.0 mi West 8.1 mph - N/A   Overcast
10:35 PM 28.4 °F 19.7 °F 19.4 °F 69% 30.16 in 10.0 mi West 9.2 mph - N/A   Overcast
10:55 PM 28.4 °F 19.7 °F 19.4 °F 69% 30.16 in 10.0 mi WNW 9.2 mph - N/A   Overcast
11:15 PM 28.4 °F 17.5 °F 19.4 °F 69% 30.16 in 10.0 mi West 13.8 mph 19.6 mph N/A   Overcast
11:35 PM 28.4 °F 19.7 °F 19.4 °F 69% 30.15 in 10.0 mi West 9.2 mph - N/A   Overcast
11:55 PM 28.4 °F 21.2 °F 19.4 °F 69% 30.15 in 10.0 mi West 6.9 mph - N/A   Overcast